Astoria, South Dakota
Current Conditions -  °F | °C
As of 9:34 PM on Monday 26 Jan 2015 (Local Time) from KCNB Reporting Station
Clear Clear  
Wind Chill:   Ceiling: Unl
Heat Index:   Visibility: 10mi
Dew Point: -1°   Wind: 3mph
Humidity: 94%   Direction: 310°NW
Pressure: 30.01"   Gusts: NA
Location:  44.56°N, 96.55°W
Report Text: KCNB 270334Z AUTO 31003KT 10SM CLR 00/M01 A3001 RMK AO2 T00001008
Loading
Personal Weather Stations






























Interactive Weather Map New forecast layout! Learn more

10-Day Weather Forecast

Advertisements
Track Severe Weather on mobile